UNU weather

Dodge County Airport
Juneau, Wisconsin, United States

Public forecast

Using degrees Fahrenheit for public forecast. Weather courtesy of forecast.io.

METAR (pilot weather report)

Retrieved 2019/05/23 11:35 UTC (0 seconds ago):

KUNU 231135Z AUTO 23008KT 10SM CLR 13/09 A2990 RMK AO2 T01260092 TSNO

TAF (pilot weather forecast)

Closest forecast is Waukesha County Airport, 30.8 nm (57.1 km) SE. Retrieved 2019/05/23 06:36 UTC (5 hours ago):

TAF KUES 230533Z 2306/2406 22008KT P6SM VCSH OVC040 FM230700 23007KT P6SM BKN050 FM231000 26006KT P6SM SCT150 FM231400 27012G21KT P6SM FEW250 FM240000 32005KT P6SM FEW150